Time;durP1;ratioP1;P1;durP2;ratioP2;P2;SDS_P1;SDS_P2;PMS_P1;PMS_P2;Temp;Humidity;BMP_temperature;BMP_pressure;BME280_temperature;BME280_humidity;BME280_pressure;Samples;Min_cycle;Max_cycle;Signal;HPM_P1;HPM_P2
2023/02/26 00:01:24;;;;;;;;;;;;;;;;;;5094896;28;19979;-71
2023/02/26 00:03:50;;;;;;;;;;;;;;;;;;5094577;28;19955;-72
2023/02/26 00:06:15;;;;;;;;;;;;;;;;;;5095146;28;20002;-73
2023/02/26 00:08:41;;;;;;;;;;;;;;;;;;5094813;28;19964;-73
2023/02/26 00:11:07;;;;;;;;;;;;;;;;;;5094511;28;19954;-73
2023/02/26 00:13:33;;;;;;;;;;;;;;;;;;5094387;28;19971;-73
2023/02/26 00:15:59;;;;;;;;;;;;;;;;;;5094731;28;19953;-73
2023/02/26 00:18:25;;;;;;;;;;;;;;;;;;5094416;28;20454;-72
2023/02/26 00:20:51;;;;;;;;;;;;;;;;;;5094350;28;19979;-73
2023/02/26 00:23:17;;;;;;;;;;;;;;;;;;5094388;28;19997;-73
2023/02/26 00:25:43;;;;;;;;;;;;;;;;;;5094832;28;20003;-73
2023/02/26 00:28:09;;;;;;;;;;;;;;;;;;5094504;28;20364;-74
2023/02/26 00:30:35;;;;;;;;;;;;;;;;;;5094482;28;19997;-71
2023/02/26 00:33:01;;;;;;;;;;;;;;;;;;5094143;28;19995;-72
2023/02/26 00:35:26;;;;;;;;;;;;;;;;;;5094095;28;19974;-71
2023/02/26 00:37:53;;;;;;;;;;;;;;;;;;5094061;28;19960;-74
2023/02/26 00:40:18;;;;;;;;;;;;;;;;;;5093721;28;19995;-72
2023/02/26 00:42:44;;;;;;;;;;;;;;;;;;5093828;28;19973;-72
2023/02/26 00:45:10;;;;;;;;;;;;;;;;;;5094047;28;19987;-73
2023/02/26 00:47:36;;;;;;;;;;;;;;;;;;5093956;28;20020;-72
2023/02/26 00:50:02;;;;;;;;;;;;;;;;;;5094177;28;19955;-72
2023/02/26 00:52:28;;;;;;;;;;;;;;;;;;5094139;28;19954;-72
2023/02/26 00:54:54;;;;;;;;;;;;;;;;;;5093824;28;19953;-73
2023/02/26 00:57:20;;;;;;;;;;;;;;;;;;5094097;28;19961;-74
2023/02/26 00:59:45;;;;;;;;;;;;;;;;;;5093789;28;19961;-73
2023/02/26 01:02:11;;;;;;;;;;;;;;;;;;5093954;28;19978;-73
2023/02/26 01:04:37;;;;;;;;;;;;;;;;;;5094027;28;19975;-73
2023/02/26 01:07:03;;;;;;;;;;;;;;;;;;5093714;28;20002;-73
2023/02/26 01:09:30;;;;;;;;;;;;;;;;;;5094259;28;19953;-72
2023/02/26 01:11:56;;;;;;;;;;;;;;;;;;5093980;28;20046;-72
2023/02/26 01:14:22;;;;;;;;;;;;;;;;;;5093848;28;20000;-71
2023/02/26 01:16:48;;;;;;;;;;;;;;;;;;5093634;28;19960;-72
2023/02/26 01:19:14;;;;;;;;;;;;;;;;;;5093929;28;19999;-72
2023/02/26 01:21:40;;;;;;;;;;;;;;;;;;5093535;28;19981;-73
2023/02/26 01:24:05;;;;;;;;;;;;;;;;;;5093552;28;20442;-73
2023/02/26 01:26:31;;;;;;;;;;;;;;;;;;5093538;28;19957;-73
2023/02/26 01:28:58;;;;;;;;;;;;;;;;;;5093477;28;20003;-73
2023/02/26 01:31:24;;;;;;;;;;;;;;;;;;5094122;28;19953;-72
2023/02/26 01:33:50;;;;;;;;;;;;;;;;;;5093761;28;19954;-72
2023/02/26 01:36:16;;;;;;;;;;;;;;;;;;5094022;28;20005;-73
2023/02/26 01:38:42;;;;;;;;;;;;;;;;;;5093463;28;19959;-72
2023/02/26 01:41:08;;;;;;;;;;;;;;;;;;5093624;28;19996;-73
2023/02/26 01:43:33;;;;;;;;;;;;;;;;;;5093380;28;20051;-73
2023/02/26 01:45:59;;;;;;;;;;;;;;;;;;5093627;28;19953;-72
2023/02/26 01:48:25;;;;;;;;;;;;;;;;;;5093332;28;19979;-71
2023/02/26 01:50:51;;;;;;;;;;;;;;;;;;5093582;28;19964;-72
2023/02/26 01:53:17;;;;;;;;;;;;;;;;;;5093574;28;19955;-72
2023/02/26 01:55:43;;;;;;;;;;;;;;;;;;5095580;28;20036;-73
2023/02/26 01:58:09;;;;;;;;;;;;;;;;;;5097380;28;20003;-73
2023/02/26 02:00:35;;;;;;;;;;;;;;;;;;5096955;28;20367;-73
2023/02/26 02:03:01;;;;;;;;;;;;;;;;;;5097258;28;19996;-71
2023/02/26 02:05:26;;;;;;;;;;;;;;;;;;5096949;28;19961;-71
2023/02/26 02:07:52;;;;;;;;;;;;;;;;;;5096933;28;19954;-73
2023/02/26 02:10:18;;;;;;;;;;;;;;;;;;5097196;28;19956;-72
2023/02/26 02:12:44;;;;;;;;;;;;;;;;;;5096779;28;19958;-72
2023/02/26 02:15:10;;;;;;;;;;;;;;;;;;5097241;28;19977;-73
2023/02/26 02:17:36;;;;;;;;;;;;;;;;;;5096699;28;19962;-72
2023/02/26 02:20:02;;;;;;;;;;;;;;;;;;5097199;28;19955;-73
2023/02/26 02:22:28;;;;;;;;;;;;;;;;;;5095290;28;19978;-73
2023/02/26 02:24:54;;;;;;;;;;;;;;;;;;5096558;28;19954;-71
2023/02/26 02:27:20;;;;;;;;;;;;;;;;;;5097090;28;20416;-74
2023/02/26 02:29:47;;;;;;;;;;;;;;;;;;5096408;28;19954;-72
2023/02/26 02:32:13;;;;;;;;;;;;;;;;;;5094939;28;20014;-73
2023/02/26 02:34:39;;;;;;;;;;;;;;;;;;5096697;28;19961;-74
2023/02/26 02:37:05;;;;;;;;;;;;;;;;;;5096298;28;19953;-72
2023/02/26 02:39:30;;;;;;;;;;;;;;;;;;5096231;28;20029;-72
2023/02/26 02:41:56;;;;;;;;;;;;;;;;;;5096151;28;19979;-73
2023/02/26 02:44:22;;;;;;;;;;;;;;;;;;5096473;28;19955;-73
2023/02/26 02:46:48;;;;;;;;;;;;;;;;;;5096413;28;20003;-74
2023/02/26 02:49:14;;;;;;;;;;;;;;;;;;5096657;28;19953;-73
2023/02/26 02:51:40;;;;;;;;;;;;;;;;;;5094554;28;20052;-73
2023/02/26 02:54:06;;;;;;;;;;;;;;;;;;5096002;28;20049;-73
2023/02/26 02:56:32;;;;;;;;;;;;;;;;;;5096230;28;19959;-73
2023/02/26 02:58:58;;;;;;;;;;;;;;;;;;5095909;28;19954;-72
2023/02/26 03:01:23;;;;;;;;;;;;;;;;;;5096284;28;20024;-73
2023/02/26 03:03:49;;;;;;;;;;;;;;;;;;5095828;28;19952;-72
2023/02/26 03:06:16;;;;;;;;;;;;;;;;;;5095216;28;19960;-72
2023/02/26 03:08:42;;;;;;;;;;;;;;;;;;5094440;28;20044;-72
2023/02/26 03:11:08;;;;;;;;;;;;;;;;;;5095940;28;19996;-72
2023/02/26 03:13:34;;;;;;;;;;;;;;;;;;5095564;28;20337;-72
2023/02/26 03:16:00;;;;;;;;;;;;;;;;;;5095584;28;19958;-72
2023/02/26 03:18:26;;;;;;;;;;;;;;;;;;5095834;28;19952;-72
2023/02/26 03:20:52;;;;;;;;;;;;;;;;;;5095686;28;19965;-72
2023/02/26 03:23:18;;;;;;;;;;;;;;;;;;5095436;28;19954;-74
2023/02/26 03:25:44;;;;;;;;;;;;;;;;;;5095937;28;20392;-73
2023/02/26 03:28:10;;;;;;;;;;;;;;;;;;5095342;28;19954;-72
2023/02/26 03:30:36;;;;;;;;;;;;;;;;;;5095298;28;19965;-71
2023/02/26 03:33:01;;;;;;;;;;;;;;;;;;5095488;28;19958;-73
2023/02/26 03:35:27;;;;;;;;;;;;;;;;;;5095128;28;19954;-73
2023/02/26 03:37:53;;;;;;;;;;;;;;;;;;5095413;28;20093;-72
2023/02/26 03:40:19;;;;;;;;;;;;;;;;;;5094705;28;20473;-73
2023/02/26 03:42:45;;;;;;;;;;;;;;;;;;5094951;28;19976;-72
2023/02/26 03:45:11;;;;;;;;;;;;;;;;;;5095261;28;19954;-71
2023/02/26 03:47:37;;;;;;;;;;;;;;;;;;5095259;28;19959;-72
2023/02/26 03:50:03;;;;;;;;;;;;;;;;;;5095497;28;19951;-74
2023/02/26 03:52:29;;;;;;;;;;;;;;;;;;5094876;28;19962;-73
2023/02/26 03:54:54;;;;;;;;;;;;;;;;;;5093538;28;19978;-72
2023/02/26 03:57:20;;;;;;;;;;;;;;;;;;5095072;28;19978;-73
2023/02/26 03:59:47;;;;;;;;;;;;;;;;;;5094997;28;19954;-73
2023/02/26 04:02:13;;;;;;;;;;;;;;;;;;5093175;28;20445;-73
2023/02/26 04:04:41;;;;;;;;;;;;;;;;;;5094653;28;19998;-72
2023/02/26 04:07:07;;;;;;;;;;;;;;;;;;5094890;28;20424;-72
2023/02/26 04:09:32;;;;;;;;;;;;;;;;;;5094833;28;19961;-72
2023/02/26 04:11:58;;;;;;;;;;;;;;;;;;5094546;28;19950;-72
2023/02/26 04:14:24;;;;;;;;;;;;;;;;;;5094643;28;19969;-72
2023/02/26 04:16:50;;;;;;;;;;;;;;;;;;5094459;28;20045;-73
2023/02/26 04:19:17;;;;;;;;;;;;;;;;;;5094069;28;20400;-73
2023/02/26 04:21:43;;;;;;;;;;;;;;;;;;5092836;28;20356;-73
2023/02/26 04:24:09;;;;;;;;;;;;;;;;;;5094895;28;19953;-73
2023/02/26 04:26:35;;;;;;;;;;;;;;;;;;5094549;28;19954;-71
2023/02/26 04:29:01;;;;;;;;;;;;;;;;;;5094226;28;20023;-73
2023/02/26 04:31:27;;;;;;;;;;;;;;;;;;5094184;28;19952;-74
2023/02/26 04:33:53;;;;;;;;;;;;;;;;;;5094447;28;20006;-72
2023/02/26 04:36:19;;;;;;;;;;;;;;;;;;5094144;28;20036;-71
2023/02/26 04:38:45;;;;;;;;;;;;;;;;;;5094039;28;20031;-72
2023/02/26 04:41:11;;;;;;;;;;;;;;;;;;5094313;28;19993;-72
2023/02/26 04:43:37;;;;;;;;;;;;;;;;;;5094014;28;19952;-73
2023/02/26 04:46:03;;;;;;;;;;;;;;;;;;5094537;28;19955;-72
2023/02/26 04:48:28;;;;;;;;;;;;;;;;;;5093998;28;20091;-72
2023/02/26 04:50:54;;;;;;;;;;;;;;;;;;5094522;28;20378;-73
2023/02/26 04:53:20;;;;;;;;;;;;;;;;;;5093918;28;19953;-74
2023/02/26 04:55:46;;;;;;;;;;;;;;;;;;5094171;28;19960;-72
2023/02/26 04:58:12;;;;;;;;;;;;;;;;;;5093833;28;20313;-71
2023/02/26 05:00:39;;;;;;;;;;;;;;;;;;5093774;28;19954;-71
2023/02/26 05:03:04;;;;;;;;;;;;;;;;;;5093828;28;19954;-73
2023/02/26 05:05:30;;;;;;;;;;;;;;;;;;5094066;28;19954;-73
2023/02/26 05:07:56;;;;;;;;;;;;;;;;;;5093715;28;19961;-71
2023/02/26 05:10:22;;;;;;;;;;;;;;;;;;5093761;28;20008;-72
2023/02/26 05:12:48;;;;;;;;;;;;;;;;;;5094256;28;20396;-73
2023/02/26 05:15:14;;;;;;;;;;;;;;;;;;5093579;28;19968;-71
2023/02/26 05:17:40;;;;;;;;;;;;;;;;;;5093623;28;19995;-72
2023/02/26 05:20:08;;;;;;;;;;;;;;;;;;5093860;28;19961;-72
2023/02/26 05:22:34;;;;;;;;;;;;;;;;;;5093850;28;20461;-72
2023/02/26 05:25:00;;;;;;;;;;;;;;;;;;5093581;28;19998;-73
2023/02/26 05:27:26;;;;;;;;;;;;;;;;;;5093581;28;20039;-72
2023/02/26 05:29:52;;;;;;;;;;;;;;;;;;5095096;28;19963;-73
2023/02/26 05:32:18;;;;;;;;;;;;;;;;;;5097867;28;19960;-73
2023/02/26 05:34:44;;;;;;;;;;;;;;;;;;5097551;28;19952;-72
2023/02/26 05:37:10;;;;;;;;;;;;;;;;;;5097502;28;19951;-73
2023/02/26 05:39:36;;;;;;;;;;;;;;;;;;5097346;28;20001;-72
2023/02/26 05:42:02;;;;;;;;;;;;;;;;;;5097317;28;19984;-71
2023/02/26 05:44:27;;;;;;;;;;;;;;;;;;5097610;28;19954;-73
2023/02/26 05:46:53;;;;;;;;;;;;;;;;;;5097568;28;19954;-72
2023/02/26 05:49:19;;;;;;;;;;;;;;;;;;5097330;28;20000;-72
2023/02/26 05:51:45;;;;;;;;;;;;;;;;;;5097348;28;20341;-71
2023/02/26 05:54:11;;;;;;;;;;;;;;;;;;5097241;28;20374;-72
2023/02/26 05:56:37;;;;;;;;;;;;;;;;;;5097744;28;20294;-73
2023/02/26 05:59:03;;;;;;;;;;;;;;;;;;5097115;28;19953;-72
2023/02/26 06:01:29;;;;;;;;;;;;;;;;;;5097003;28;19980;-72
2023/02/26 06:03:55;;;;;;;;;;;;;;;;;;5097302;28;19954;-73
2023/02/26 06:06:21;;;;;;;;;;;;;;;;;;5096926;28;19958;-71
2023/02/26 06:08:47;;;;;;;;;;;;;;;;;;5097486;28;20003;-72
2023/02/26 06:11:12;;;;;;;;;;;;;;;;;;5097132;28;19960;-72
2023/02/26 06:13:39;;;;;;;;;;;;;;;;;;5097005;28;20058;-71
2023/02/26 06:16:04;;;;;;;;;;;;;;;;;;5096790;28;19968;-71
2023/02/26 06:18:32;;;;;;;;;;;;;;;;;;5097023;28;19952;-71
2023/02/26 06:20:58;;;;;;;;;;;;;;;;;;5096611;28;19954;-71
2023/02/26 06:23:24;;;;;;;;;;;;;;;;;;5097218;28;20442;-73
2023/02/26 06:25:50;;;;;;;;;;;;;;;;;;5096846;28;20010;-74
2023/02/26 06:28:16;;;;;;;;;;;;;;;;;;5096811;28;19953;-72
2023/02/26 06:30:42;;;;;;;;;;;;;;;;;;5096453;28;19965;-73
2023/02/26 06:33:08;;;;;;;;;;;;;;;;;;5097005;28;19953;-73
2023/02/26 06:35:34;;;;;;;;;;;;;;;;;;5096375;28;19961;-71
2023/02/26 06:37:59;;;;;;;;;;;;;;;;;;5096331;28;19959;-72
2023/02/26 06:40:25;;;;;;;;;;;;;;;;;;5096180;28;20013;-71
2023/02/26 06:42:51;;;;;;;;;;;;;;;;;;5095215;28;20368;-73
2023/02/26 06:45:17;;;;;;;;;;;;;;;;;;5096433;28;19952;-71
2023/02/26 06:47:43;;;;;;;;;;;;;;;;;;5096147;28;20004;-72
2023/02/26 06:50:09;;;;;;;;;;;;;;;;;;5096665;28;19955;-73
2023/02/26 06:52:35;;;;;;;;;;;;;;;;;;5096048;28;19954;-71
2023/02/26 06:55:01;;;;;;;;;;;;;;;;;;5096354;28;19961;-72
2023/02/26 06:57:27;;;;;;;;;;;;;;;;;;5096009;28;20414;-73
2023/02/26 06:59:54;;;;;;;;;;;;;;;;;;5096234;28;19963;-73
2023/02/26 07:02:19;;;;;;;;;;;;;;;;;;5095844;28;19973;-73
2023/02/26 07:04:45;;;;;;;;;;;;;;;;;;5096137;28;20011;-73
2023/02/26 07:07:11;;;;;;;;;;;;;;;;;;5096030;28;19959;-72
2023/02/26 07:09:37;;;;;;;;;;;;;;;;;;5095714;28;19952;-72
2023/02/26 07:12:03;;;;;;;;;;;;;;;;;;5096233;28;19959;-71
2023/02/26 07:14:29;;;;;;;;;;;;;;;;;;5095582;28;20054;-71
2023/02/26 07:16:55;;;;;;;;;;;;;;;;;;5095842;28;19954;-73
2023/02/26 07:19:21;;;;;;;;;;;;;;;;;;5095548;28;20311;-72
2023/02/26 07:21:47;;;;;;;;;;;;;;;;;;5095439;28;20026;-74
2023/02/26 07:24:13;;;;;;;;;;;;;;;;;;5095442;28;19962;-72
2023/02/26 07:26:39;;;;;;;;;;;;;;;;;;5095378;28;19958;-72
2023/02/26 07:29:06;;;;;;;;;;;;;;;;;;5095875;28;20401;-72
2023/02/26 07:31:32;;;;;;;;;;;;;;;;;;5095651;28;19957;-74
2023/02/26 07:33:58;;;;;;;;;;;;;;;;;;5095804;28;19961;-71
2023/02/26 07:36:24;;;;;;;;;;;;;;;;;;5095181;28;20433;-72
2023/02/26 07:38:49;;;;;;;;;;;;;;;;;;5094949;28;20025;-73
2023/02/26 07:41:15;;;;;;;;;;;;;;;;;;5095116;28;20428;-72
2023/02/26 07:43:41;;;;;;;;;;;;;;;;;;5095129;28;19961;-73
2023/02/26 07:46:07;;;;;;;;;;;;;;;;;;5095309;28;20334;-72
2023/02/26 07:48:33;;;;;;;;;;;;;;;;;;5095027;28;19954;-72
2023/02/26 07:50:59;;;;;;;;;;;;;;;;;;5095005;28;19953;-71
2023/02/26 07:53:25;;;;;;;;;;;;;;;;;;5095336;28;19960;-73
2023/02/26 07:55:51;;;;;;;;;;;;;;;;;;5095418;28;19975;-71
2023/02/26 07:58:17;;;;;;;;;;;;;;;;;;5094817;28;20403;-73
2023/02/26 08:00:43;;;;;;;;;;;;;;;;;;5095022;28;19958;-72
2023/02/26 08:03:09;;;;;;;;;;;;;;;;;;5094714;28;20006;-72
2023/02/26 08:05:35;;;;;;;;;;;;;;;;;;5095238;28;19960;-72
2023/02/26 08:08:00;;;;;;;;;;;;;;;;;;5094644;28;19953;-72
2023/02/26 08:10:26;;;;;;;;;;;;;;;;;;5095115;28;20429;-72
2023/02/26 08:12:52;;;;;;;;;;;;;;;;;;5094538;28;19962;-73
2023/02/26 08:15:18;;;;;;;;;;;;;;;;;;5094422;28;19969;-73
2023/02/26 08:17:44;;;;;;;;;;;;;;;;;;5094443;28;19961;-73
2023/02/26 08:20:10;;;;;;;;;;;;;;;;;;5094982;28;20398;-72
2023/02/26 08:22:36;;;;;;;;;;;;;;;;;;5094570;28;20441;-73
2023/02/26 08:25:02;;;;;;;;;;;;;;;;;;5094320;28;19965;-72
2023/02/26 08:27:28;;;;;;;;;;;;;;;;;;5094322;28;19956;-72
2023/02/26 08:29:55;;;;;;;;;;;;;;;;;;5094227;28;19961;-72
2023/02/26 08:32:21;;;;;;;;;;;;;;;;;;5092737;28;19957;-72
2023/02/26 08:34:47;;;;;;;;;;;;;;;;;;5094214;28;19986;-72
2023/02/26 08:37:13;;;;;;;;;;;;;;;;;;5094151;28;19954;-73
2023/02/26 08:39:39;;;;;;;;;;;;;;;;;;5093934;28;20429;-73
2023/02/26 08:42:05;;;;;;;;;;;;;;;;;;5094005;28;19973;-73
2023/02/26 08:44:31;;;;;;;;;;;;;;;;;;5094259;28;19954;-73
2023/02/26 08:46:57;;;;;;;;;;;;;;;;;;5094262;28;19960;-75
2023/02/26 08:49:23;;;;;;;;;;;;;;;;;;5093919;28;19956;-74
2023/02/26 08:51:49;;;;;;;;;;;;;;;;;;5093934;28;20298;-74
2023/02/26 08:54:14;;;;;;;;;;;;;;;;;;5093908;28;20003;-73
2023/02/26 08:56:40;;;;;;;;;;;;;;;;;;5093863;28;19960;-72
2023/02/26 08:59:07;;;;;;;;;;;;;;;;;;5093831;28;20035;-72
2023/02/26 09:01:33;;;;;;;;;;;;;;;;;;5094335;28;20176;-72
2023/02/26 09:03:59;;;;;;;;;;;;;;;;;;5093496;28;19954;-72
2023/02/26 09:06:25;;;;;;;;;;;;;;;;;;5093495;28;19954;-74
2023/02/26 09:08:51;;;;;;;;;;;;;;;;;;5093740;28;20431;-75
2023/02/26 09:11:17;;;;;;;;;;;;;;;;;;5093764;28;19953;-74
2023/02/26 09:13:43;;;;;;;;;;;;;;;;;;5094215;28;20100;-74
2023/02/26 09:16:09;;;;;;;;;;;;;;;;;;5093672;28;19954;-72
2023/02/26 09:18:35;;;;;;;;;;;;;;;;;;5094207;28;20274;-74
2023/02/26 09:21:01;;;;;;;;;;;;;;;;;;5093834;28;19960;-74
2023/02/26 09:23:27;;;;;;;;;;;;;;;;;;5093890;28;20043;-72
2023/02/26 09:25:53;;;;;;;;;;;;;;;;;;5093576;28;20034;-73
2023/02/26 09:28:19;;;;;;;;;;;;;;;;;;5093578;28;19992;-73
2023/02/26 09:30:45;;;;;;;;;;;;;;;;;;5093574;28;20304;-73
2023/02/26 09:33:11;;;;;;;;;;;;;;;;;;5093819;28;20044;-73
2023/02/26 09:35:37;;;;;;;;;;;;;;;;;;5093514;28;19951;-73
2023/02/26 09:38:03;;;;;;;;;;;;;;;;;;5093504;28;19949;-73
2023/02/26 09:40:29;;;;;;;;;;;;;;;;;;5093094;28;19996;-75
2023/02/26 09:42:54;;;;;;;;;;;;;;;;;;5093919;28;19971;-73
2023/02/26 09:45:20;;;;;;;;;;;;;;;;;;5093719;28;19994;-73
2023/02/26 09:47:46;;;;;;;;;;;;;;;;;;5093598;28;20063;-73
2023/02/26 09:50:12;;;;;;;;;;;;;;;;;;5093392;28;19962;-73
2023/02/26 09:52:38;;;;;;;;;;;;;;;;;;5093913;28;19959;-73
2023/02/26 09:55:04;;;;;;;;;;;;;;;;;;5093315;28;19955;-72
2023/02/26 09:57:30;;;;;;;;;;;;;;;;;;5094165;28;20039;-73
2023/02/26 09:59:56;;;;;;;;;;;;;;;;;;5093316;28;19959;-74
2023/02/26 10:02:22;;;;;;;;;;;;;;;;;;5093749;28;20436;-73
2023/02/26 10:04:48;;;;;;;;;;;;;;;;;;5093262;28;19952;-73
2023/02/26 10:07:13;;;;;;;;;;;;;;;;;;5093488;28;19951;-73
2023/02/26 10:09:40;;;;;;;;;;;;;;;;;;5093442;28;19952;-73
2023/02/26 10:12:06;;;;;;;;;;;;;;;;;;5093798;28;19950;-73
2023/02/26 10:14:32;;;;;;;;;;;;;;;;;;5093021;28;20456;-73
2023/02/26 10:16:58;;;;;;;;;;;;;;;;;;5094650;28;19950;-71
2023/02/26 10:19:24;;;;;;;;;;;;;;;;;;5096694;28;19954;-72
2023/02/26 10:21:50;;;;;;;;;;;;;;;;;;5096569;28;20344;-72
2023/02/26 10:24:16;;;;;;;;;;;;;;;;;;5096610;28;19992;-73
2023/02/26 10:26:42;;;;;;;;;;;;;;;;;;5097095;28;19957;-74
2023/02/26 10:29:08;;;;;;;;;;;;;;;;;;5096537;28;19952;-73
2023/02/26 10:31:33;;;;;;;;;;;;;;;;;;5096516;28;19976;-73
2023/02/26 10:33:59;;;;;;;;;;;;;;;;;;5096446;28;20049;-72
2023/02/26 10:36:25;;;;;;;;;;;;;;;;;;5096926;28;20393;-72
2023/02/26 10:38:51;;;;;;;;;;;;;;;;;;5096446;28;19987;-73
2023/02/26 10:41:17;;;;;;;;;;;;;;;;;;5096254;28;20019;-72
2023/02/26 10:43:44;;;;;;;;;;;;;;;;;;5096319;28;19953;-73
2023/02/26 10:46:09;;;;;;;;;;;;;;;;;;5094964;28;19963;-72
2023/02/26 10:48:35;;;;;;;;;;;;;;;;;;5096137;28;20368;-73
2023/02/26 10:51:01;;;;;;;;;;;;;;;;;;5096061;28;19953;-73
2023/02/26 10:53:27;;;;;;;;;;;;;;;;;;5096347;28;19958;-73
2023/02/26 10:55:53;;;;;;;;;;;;;;;;;;5096039;28;19952;-73
2023/02/26 10:58:19;;;;;;;;;;;;;;;;;;5095846;28;19991;-72
2023/02/26 11:00:45;;;;;;;;;;;;;;;;;;5095955;28;19953;-72
2023/02/26 11:03:11;;;;;;;;;;;;;;;;;;5096105;28;19983;-72
2023/02/26 11:05:37;;;;;;;;;;;;;;;;;;5095853;28;19958;-74
2023/02/26 11:08:03;;;;;;;;;;;;;;;;;;5095759;28;19957;-72
2023/02/26 11:10:29;;;;;;;;;;;;;;;;;;5096327;28;19978;-72
2023/02/26 11:12:54;;;;;;;;;;;;;;;;;;5095971;28;19953;-73
2023/02/26 11:15:20;;;;;;;;;;;;;;;;;;5095576;28;19977;-73
2023/02/26 11:17:47;;;;;;;;;;;;;;;;;;5096172;28;19973;-73
2023/02/26 11:20:14;;;;;;;;;;;;;;;;;;5095580;28;19982;-74
2023/02/26 11:22:39;;;;;;;;;;;;;;;;;;5095440;28;20469;-72
2023/02/26 11:25:05;;;;;;;;;;;;;;;;;;5095962;28;19958;-72
2023/02/26 11:27:31;;;;;;;;;;;;;;;;;;5095262;28;19954;-73
2023/02/26 11:29:58;;;;;;;;;;;;;;;;;;5095659;28;19998;-73
2023/02/26 11:32:24;;;;;;;;;;;;;;;;;;5095370;28;19967;-74
2023/02/26 11:34:50;;;;;;;;;;;;;;;;;;5095561;28;20041;-72
2023/02/26 11:37:16;;;;;;;;;;;;;;;;;;5095228;28;19954;-73
2023/02/26 11:39:42;;;;;;;;;;;;;;;;;;5095041;28;20413;-74
2023/02/26 11:42:08;;;;;;;;;;;;;;;;;;5095099;28;19981;-73
2023/02/26 11:44:33;;;;;;;;;;;;;;;;;;5095337;28;19951;-74
2023/02/26 11:46:59;;;;;;;;;;;;;;;;;;5095310;28;19955;-73
2023/02/26 11:49:25;;;;;;;;;;;;;;;;;;5094958;28;20408;-73
2023/02/26 11:51:51;;;;;;;;;;;;;;;;;;5094921;28;19960;-72
2023/02/26 11:54:17;;;;;;;;;;;;;;;;;;5095454;28;20291;-72
2023/02/26 11:56:43;;;;;;;;;;;;;;;;;;5095151;28;19958;-71
2023/02/26 11:59:09;;;;;;;;;;;;;;;;;;5094810;28;19957;-73
2023/02/26 12:01:35;;;;;;;;;;;;;;;;;;5095238;28;20071;-73
2023/02/26 12:04:01;;;;;;;;;;;;;;;;;;5094691;28;19956;-74
2023/02/26 12:06:26;;;;;;;;;;;;;;;;;;5094690;28;19960;-72
2023/02/26 12:08:52;;;;;;;;;;;;;;;;;;5095188;28;19965;-72
2023/02/26 12:11:18;;;;;;;;;;;;;;;;;;5094608;28;19997;-73
2023/02/26 12:13:44;;;;;;;;;;;;;;;;;;5094755;28;20018;-73
2023/02/26 12:16:10;;;;;;;;;;;;;;;;;;5094483;28;19960;-71
2023/02/26 12:18:36;;;;;;;;;;;;;;;;;;5095039;28;20369;-72
2023/02/26 12:21:02;;;;;;;;;;;;;;;;;;5094613;28;19958;-73
2023/02/26 12:23:28;;;;;;;;;;;;;;;;;;5094376;28;19960;-74
2023/02/26 12:25:54;;;;;;;;;;;;;;;;;;5094369;28;20002;-73
2023/02/26 12:28:20;;;;;;;;;;;;;;;;;;5094852;28;20410;-72
2023/02/26 12:30:46;;;;;;;;;;;;;;;;;;5094243;28;19954;-73
2023/02/26 12:33:11;;;;;;;;;;;;;;;;;;5094228;28;19967;-72
2023/02/26 12:35:37;;;;;;;;;;;;;;;;;;5094479;28;20082;-73
2023/02/26 12:38:03;;;;;;;;;;;;;;;;;;5092840;28;20051;-74
2023/02/26 12:40:29;;;;;;;;;;;;;;;;;;5093045;28;19996;-73
2023/02/26 12:42:55;;;;;;;;;;;;;;;;;;5094340;28;20014;-72
2023/02/26 12:45:21;;;;;;;;;;;;;;;;;;5094068;28;20340;-73
2023/02/26 12:47:47;;;;;;;;;;;;;;;;;;5094047;28;19992;-73
2023/02/26 12:50:13;;;;;;;;;;;;;;;;;;5094007;28;19953;-74
2023/02/26 12:52:39;;;;;;;;;;;;;;;;;;5094518;28;20381;-72
2023/02/26 12:55:06;;;;;;;;;;;;;;;;;;5094194;28;20332;-73
2023/02/26 12:57:32;;;;;;;;;;;;;;;;;;5094495;28;19952;-72
2023/02/26 12:59:59;;;;;;;;;;;;;;;;;;5094148;28;19960;-72
2023/02/26 13:02:25;;;;;;;;;;;;;;;;;;5094117;28;20016;-72
2023/02/26 13:04:50;;;;;;;;;;;;;;;;;;5093759;28;20052;-73
2023/02/26 13:07:16;;;;;;;;;;;;;;;;;;5093776;28;19960;-73
2023/02/26 13:09:42;;;;;;;;;;;;;;;;;;5094024;28;19957;-73
2023/02/26 13:12:09;;;;;;;;;;;;;;;;;;5093980;28;20427;-72
2023/02/26 13:14:35;;;;;;;;;;;;;;;;;;5094190;28;19967;-72
2023/02/26 13:17:00;;;;;;;;;;;;;;;;;;5093735;28;19954;-72
2023/02/26 13:19:26;;;;;;;;;;;;;;;;;;5093655;28;20527;-73
2023/02/26 13:21:52;;;;;;;;;;;;;;;;;;5093494;28;19978;-72
2023/02/26 13:24:19;;;;;;;;;;;;;;;;;;5094203;28;20407;-74
2023/02/26 13:26:44;;;;;;;;;;;;;;;;;;5093774;28;20403;-73
2023/02/26 13:29:10;;;;;;;;;;;;;;;;;;5093525;28;19979;-74
2023/02/26 13:31:36;;;;;;;;;;;;;;;;;;5093834;28;19958;-73
2023/02/26 13:34:02;;;;;;;;;;;;;;;;;;5093702;28;20404;-73
2023/02/26 13:36:28;;;;;;;;;;;;;;;;;;5093530;28;19994;-72
2023/02/26 13:38:54;;;;;;;;;;;;;;;;;;5093706;28;20518;-72
2023/02/26 13:41:20;;;;;;;;;;;;;;;;;;5093738;28;19970;-73
2023/02/26 13:43:46;;;;;;;;;;;;;;;;;;5093414;28;20043;-73
2023/02/26 13:46:12;;;;;;;;;;;;;;;;;;5093713;28;20017;-73
2023/02/26 13:48:38;;;;;;;;;;;;;;;;;;5093389;28;20007;-72
2023/02/26 13:51:03;;;;;;;;;;;;;;;;;;5094660;28;19993;-72
2023/02/26 13:53:29;;;;;;;;;;;;;;;;;;5097477;28;19952;-73
2023/02/26 13:55:55;;;;;;;;;;;;;;;;;;5097441;28;19957;-73
2023/02/26 13:58:21;;;;;;;;;;;;;;;;;;5097683;28;19952;-73
2023/02/26 14:00:47;;;;;;;;;;;;;;;;;;5097063;28;20421;-73
2023/02/26 14:03:13;;;;;;;;;;;;;;;;;;5096986;28;19973;-73
2023/02/26 14:05:39;;;;;;;;;;;;;;;;;;5097580;28;19954;-73
2023/02/26 14:08:05;;;;;;;;;;;;;;;;;;5096948;28;19961;-74
2023/02/26 14:10:31;;;;;;;;;;;;;;;;;;5097396;28;19954;-72
2023/02/26 14:12:56;;;;;;;;;;;;;;;;;;5096661;28;19988;-72
2023/02/26 14:15:22;;;;;;;;;;;;;;;;;;5095464;28;20513;-73
2023/02/26 14:17:48;;;;;;;;;;;;;;;;;;5097048;28;19952;-73
2023/02/26 14:20:14;;;;;;;;;;;;;;;;;;5096575;28;20320;-73
2023/02/26 14:22:42;;;;;;;;;;;;;;;;;;5096676;28;19998;-73
2023/02/26 14:25:07;;;;;;;;;;;;;;;;;;5096935;28;19985;-73
2023/02/26 14:27:33;;;;;;;;;;;;;;;;;;5096599;28;19961;-72
2023/02/26 14:29:59;;;;;;;;;;;;;;;;;;5096953;28;20471;-73
2023/02/26 14:32:26;;;;;;;;;;;;;;;;;;5096501;28;20440;-73
2023/02/26 14:34:53;;;;;;;;;;;;;;;;;;5096461;28;20124;-73
2023/02/26 14:37:20;;;;;;;;;;;;;;;;;;5096427;28;19954;-74
2023/02/26 14:39:46;;;;;;;;;;;;;;;;;;5096249;28;20076;-73
2023/02/26 14:42:12;;;;;;;;;;;;;;;;;;5096453;28;20461;-74
2023/02/26 14:44:38;;;;;;;;;;;;;;;;;;5096229;28;19953;-73
2023/02/26 14:47:04;;;;;;;;;;;;;;;;;;5096498;28;20066;-72
2023/02/26 14:49:29;;;;;;;;;;;;;;;;;;5096125;28;19997;-73
2023/02/26 14:51:55;;;;;;;;;;;;;;;;;;5096326;28;19953;-72
2023/02/26 14:54:21;;;;;;;;;;;;;;;;;;5095981;28;19951;-72
2023/02/26 14:56:48;;;;;;;;;;;;;;;;;;5095913;28;19953;-74
2023/02/26 14:59:14;;;;;;;;;;;;;;;;;;5096125;28;20362;-73
2023/02/26 15:01:40;;;;;;;;;;;;;;;;;;5096104;28;20022;-72
2023/02/26 15:04:06;;;;;;;;;;;;;;;;;;5095097;28;20007;-72
2023/02/26 15:06:32;;;;;;;;;;;;;;;;;;5095817;28;19956;-72
2023/02/26 15:08:58;;;;;;;;;;;;;;;;;;5095767;28;19959;-73
2023/02/26 15:11:24;;;;;;;;;;;;;;;;;;5095746;28;19953;-73
2023/02/26 15:13:50;;;;;;;;;;;;;;;;;;5095869;28;19969;-74
2023/02/26 15:16:16;;;;;;;;;;;;;;;;;;5095697;28;19956;-73
2023/02/26 15:18:42;;;;;;;;;;;;;;;;;;5095500;28;20463;-73
2023/02/26 15:21:08;;;;;;;;;;;;;;;;;;5095533;28;19952;-73
2023/02/26 15:23:34;;;;;;;;;;;;;;;;;;5095468;28;20350;-73
2023/02/26 15:26:00;;;;;;;;;;;;;;;;;;5095634;28;19962;-73
2023/02/26 15:28:26;;;;;;;;;;;;;;;;;;5095713;28;20003;-73
2023/02/26 15:30:52;;;;;;;;;;;;;;;;;;5095327;28;19958;-73
2023/02/26 15:33:19;;;;;;;;;;;;;;;;;;5095328;28;19990;-73
2023/02/26 15:35:45;;;;;;;;;;;;;;;;;;5095300;28;19954;-71
2023/02/26 15:38:11;;;;;;;;;;;;;;;;;;5095251;28;19953;-74
2023/02/26 15:40:36;;;;;;;;;;;;;;;;;;5094774;28;20495;-74
2023/02/26 15:43:02;;;;;;;;;;;;;;;;;;5095100;28;20016;-72
2023/02/26 15:45:28;;;;;;;;;;;;;;;;;;5095638;28;20343;-72
2023/02/26 15:47:54;;;;;;;;;;;;;;;;;;5094951;28;19950;-72
2023/02/26 15:50:20;;;;;;;;;;;;;;;;;;5095573;28;19996;-73
2023/02/26 15:52:46;;;;;;;;;;;;;;;;;;5095765;28;20009;-72
2023/02/26 15:55:12;;;;;;;;;;;;;;;;;;5096854;28;19959;-73
2023/02/26 15:57:38;;;;;;;;;;;;;;;;;;5095429;28;19954;-74
2023/02/26 16:00:05;;;;;;;;;;;;;;;;;;5095137;28;19957;-72
2023/02/26 16:02:31;;;;;;;;;;;;;;;;;;5094666;28;19974;-74
2023/02/26 16:04:57;;;;;;;;;;;;;;;;;;5094787;28;19958;-74
2023/02/26 16:07:23;;;;;;;;;;;;;;;;;;5094956;28;19950;-72
2023/02/26 16:09:50;;;;;;;;;;;;;;;;;;5094646;28;19952;-74
2023/02/26 16:12:16;;;;;;;;;;;;;;;;;;5094611;28;19961;-72
2023/02/26 16:14:42;;;;;;;;;;;;;;;;;;5094510;28;19974;-72
2023/02/26 16:17:07;;;;;;;;;;;;;;;;;;5094829;28;19957;-71
2023/02/26 16:19:33;;;;;;;;;;;;;;;;;;5094762;28;20314;-72
2023/02/26 16:22:00;;;;;;;;;;;;;;;;;;5094965;28;19975;-73
2023/02/26 16:24:26;;;;;;;;;;;;;;;;;;5094381;28;19961;-73
2023/02/26 16:26:52;;;;;;;;;;;;;;;;;;5094878;28;20321;-72
2023/02/26 16:29:18;;;;;;;;;;;;;;;;;;5094601;28;20006;-73
2023/02/26 16:31:44;;;;;;;;;;;;;;;;;;5094327;28;19955;-73
2023/02/26 16:34:10;;;;;;;;;;;;;;;;;;5094771;28;20475;-72
2023/02/26 16:36:36;;;;;;;;;;;;;;;;;;5094183;28;19957;-72